sensor_id;sensor_type;location;lat;lon;timestamp;P1;durP1;ratioP1;P2;durP2;ratioP2
33453;SDS011;39400;49.744;7.012;2023-06-22T00:02:11;8.93;;;6.45;;
33453;SDS011;39400;49.744;7.012;2023-06-22T00:04:36;8.63;;;6.45;;
33453;SDS011;39400;49.744;7.012;2023-06-22T00:07:01;12.25;;;7.40;;
33453;SDS011;39400;49.744;7.012;2023-06-22T00:09:27;12.27;;;7.50;;
33453;SDS011;39400;49.744;7.012;2023-06-22T00:11:52;7.93;;;6.60;;
33453;SDS011;39400;49.744;7.012;2023-06-22T00:14:17;10.13;;;6.53;;
33453;SDS011;39400;49.744;7.012;2023-06-22T00:16:43;10.27;;;7.15;;
33453;SDS011;39400;49.744;7.012;2023-06-22T00:19:08;11.10;;;7.28;;
33453;SDS011;39400;49.744;7.012;2023-06-22T00:21:33;10.50;;;6.68;;
33453;SDS011;39400;49.744;7.012;2023-06-22T00:23:59;7.90;;;6.50;;
33453;SDS011;39400;49.744;7.012;2023-06-22T00:26:24;13.27;;;6.72;;
33453;SDS011;39400;49.744;7.012;2023-06-22T00:28:50;9.95;;;7.43;;
33453;SDS011;39400;49.744;7.012;2023-06-22T00:31:15;23.92;;;8.82;;
33453;SDS011;39400;49.744;7.012;2023-06-22T00:33:40;13.38;;;8.98;;
33453;SDS011;39400;49.744;7.012;2023-06-22T00:36:06;8.85;;;6.95;;
33453;SDS011;39400;49.744;7.012;2023-06-22T00:38:31;12.55;;;8.40;;
33453;SDS011;39400;49.744;7.012;2023-06-22T00:40:56;10.63;;;7.60;;
33453;SDS011;39400;49.744;7.012;2023-06-22T00:43:22;11.43;;;7.35;;
33453;SDS011;39400;49.744;7.012;2023-06-22T00:45:47;9.40;;;6.38;;
33453;SDS011;39400;49.744;7.012;2023-06-22T00:48:13;9.10;;;6.63;;
33453;SDS011;39400;49.744;7.012;2023-06-22T00:50:39;12.90;;;9.13;;
33453;SDS011;39400;49.744;7.012;2023-06-22T00:53:06;10.05;;;8.20;;
33453;SDS011;39400;49.744;7.012;2023-06-22T00:55:32;11.02;;;8.23;;
33453;SDS011;39400;49.744;7.012;2023-06-22T00:57:58;9.25;;;7.43;;
33453;SDS011;39400;49.744;7.012;2023-06-22T01:00:23;9.75;;;7.90;;
33453;SDS011;39400;49.744;7.012;2023-06-22T01:02:50;12.43;;;7.85;;
33453;SDS011;39400;49.744;7.012;2023-06-22T01:05:17;10.32;;;8.18;;
33453;SDS011;39400;49.744;7.012;2023-06-22T01:08:04;11.35;;;8.55;;
33453;SDS011;39400;49.744;7.012;2023-06-22T01:13:06;14.88;;;10.45;;
33453;SDS011;39400;49.744;7.012;2023-06-22T01:16:02;13.50;;;8.27;;
33453;SDS011;39400;49.744;7.012;2023-06-22T01:18:31;17.85;;;11.13;;
33453;SDS011;39400;49.744;7.012;2023-06-22T01:20:59;12.18;;;10.52;;
33453;SDS011;39400;49.744;7.012;2023-06-22T01:23:27;10.63;;;8.98;;
33453;SDS011;39400;49.744;7.012;2023-06-22T01:26:11;11.07;;;8.57;;
33453;SDS011;39400;49.744;7.012;2023-06-22T01:28:46;12.60;;;8.23;;
33453;SDS011;39400;49.744;7.012;2023-06-22T01:31:23;12.27;;;9.50;;
33453;SDS011;39400;49.744;7.012;2023-06-22T01:33:53;11.50;;;8.43;;
33453;SDS011;39400;49.744;7.012;2023-06-22T01:36:21;15.02;;;9.32;;
33453;SDS011;39400;49.744;7.012;2023-06-22T01:38:48;10.13;;;8.25;;
33453;SDS011;39400;49.744;7.012;2023-06-22T01:41:14;12.15;;;10.40;;
33453;SDS011;39400;49.744;7.012;2023-06-22T01:43:45;11.48;;;7.63;;
33453;SDS011;39400;49.744;7.012;2023-06-22T01:46:12;11.88;;;8.07;;
33453;SDS011;39400;49.744;7.012;2023-06-22T01:48:39;8.82;;;6.90;;
33453;SDS011;39400;49.744;7.012;2023-06-22T01:51:05;10.55;;;8.13;;
33453;SDS011;39400;49.744;7.012;2023-06-22T01:53:30;10.30;;;8.07;;
33453;SDS011;39400;49.744;7.012;2023-06-22T01:55:56;12.68;;;8.93;;
33453;SDS011;39400;49.744;7.012;2023-06-22T01:58:23;13.18;;;9.55;;
33453;SDS011;39400;49.744;7.012;2023-06-22T02:01:13;15.73;;;10.10;;
33453;SDS011;39400;49.744;7.012;2023-06-22T02:03:43;10.07;;;8.85;;
33453;SDS011;39400;49.744;7.012;2023-06-22T02:06:46;9.10;;;7.55;;
33453;SDS011;39400;49.744;7.012;2023-06-22T02:09:09;10.27;;;8.80;;
33453;SDS011;39400;49.744;7.012;2023-06-22T02:11:40;11.10;;;8.05;;
33453;SDS011;39400;49.744;7.012;2023-06-22T02:14:07;10.57;;;9.43;;
33453;SDS011;39400;49.744;7.012;2023-06-22T02:16:33;15.82;;;8.85;;
33453;SDS011;39400;49.744;7.012;2023-06-22T02:19:02;12.13;;;8.95;;
33453;SDS011;39400;49.744;7.012;2023-06-22T02:21:27;9.25;;;7.75;;
33453;SDS011;39400;49.744;7.012;2023-06-22T02:23:53;8.88;;;7.80;;
33453;SDS011;39400;49.744;7.012;2023-06-22T02:26:18;11.20;;;7.47;;
33453;SDS011;39400;49.744;7.012;2023-06-22T02:28:44;10.35;;;8.05;;
33453;SDS011;39400;49.744;7.012;2023-06-22T02:31:09;10.98;;;8.93;;
33453;SDS011;39400;49.744;7.012;2023-06-22T02:33:35;10.52;;;8.18;;
33453;SDS011;39400;49.744;7.012;2023-06-22T02:36:00;12.50;;;8.18;;
33453;SDS011;39400;49.744;7.012;2023-06-22T02:38:26;10.52;;;7.63;;
33453;SDS011;39400;49.744;7.012;2023-06-22T02:40:51;9.98;;;8.48;;
33453;SDS011;39400;49.744;7.012;2023-06-22T02:43:16;9.00;;;7.57;;
33453;SDS011;39400;49.744;7.012;2023-06-22T02:45:43;12.00;;;7.85;;
33453;SDS011;39400;49.744;7.012;2023-06-22T02:48:09;11.93;;;8.35;;
33453;SDS011;39400;49.744;7.012;2023-06-22T02:50:35;13.70;;;9.80;;
33453;SDS011;39400;49.744;7.012;2023-06-22T02:53:01;9.52;;;7.88;;
33453;SDS011;39400;49.744;7.012;2023-06-22T02:57:57;9.18;;;7.80;;
33453;SDS011;39400;49.744;7.012;2023-06-22T03:00:23;11.07;;;8.43;;
33453;SDS011;39400;49.744;7.012;2023-06-22T03:02:49;10.75;;;8.50;;
33453;SDS011;39400;49.744;7.012;2023-06-22T03:05:14;10.10;;;8.20;;
33453;SDS011;39400;49.744;7.012;2023-06-22T03:07:41;10.95;;;7.88;;
33453;SDS011;39400;49.744;7.012;2023-06-22T03:10:07;9.00;;;7.22;;
33453;SDS011;39400;49.744;7.012;2023-06-22T03:12:37;14.05;;;7.75;;
33453;SDS011;39400;49.744;7.012;2023-06-22T03:15:07;8.80;;;7.38;;
33453;SDS011;39400;49.744;7.012;2023-06-22T03:17:34;11.23;;;8.80;;
33453;SDS011;39400;49.744;7.012;2023-06-22T03:20:01;9.13;;;8.10;;
33453;SDS011;39400;49.744;7.012;2023-06-22T03:22:27;9.80;;;8.13;;
33453;SDS011;39400;49.744;7.012;2023-06-22T03:24:52;11.40;;;9.40;;
33453;SDS011;39400;49.744;7.012;2023-06-22T03:27:18;10.35;;;8.85;;
33453;SDS011;39400;49.744;7.012;2023-06-22T03:29:43;11.25;;;9.07;;
33453;SDS011;39400;49.744;7.012;2023-06-22T03:32:08;9.85;;;8.38;;
33453;SDS011;39400;49.744;7.012;2023-06-22T03:34:34;15.48;;;9.45;;
33453;SDS011;39400;49.744;7.012;2023-06-22T03:36:59;11.48;;;8.63;;
33453;SDS011;39400;49.744;7.012;2023-06-22T03:39:25;14.73;;;9.30;;
33453;SDS011;39400;49.744;7.012;2023-06-22T03:41:50;10.35;;;8.82;;
33453;SDS011;39400;49.744;7.012;2023-06-22T03:44:17;11.85;;;9.52;;
33453;SDS011;39400;49.744;7.012;2023-06-22T03:46:42;15.20;;;9.93;;
33453;SDS011;39400;49.744;7.012;2023-06-22T03:49:07;14.23;;;10.82;;
33453;SDS011;39400;49.744;7.012;2023-06-22T03:51:33;11.45;;;9.77;;
33453;SDS011;39400;49.744;7.012;2023-06-22T03:53:58;11.43;;;9.73;;
33453;SDS011;39400;49.744;7.012;2023-06-22T03:56:23;12.02;;;10.45;;
33453;SDS011;39400;49.744;7.012;2023-06-22T03:58:49;11.88;;;10.15;;
33453;SDS011;39400;49.744;7.012;2023-06-22T04:01:14;13.38;;;9.30;;
33453;SDS011;39400;49.744;7.012;2023-06-22T04:03:40;12.50;;;9.75;;
33453;SDS011;39400;49.744;7.012;2023-06-22T04:06:06;11.50;;;9.65;;
33453;SDS011;39400;49.744;7.012;2023-06-22T04:08:31;11.32;;;8.60;;
33453;SDS011;39400;49.744;7.012;2023-06-22T04:10:57;10.57;;;8.57;;
33453;SDS011;39400;49.744;7.012;2023-06-22T04:13:22;11.25;;;8.73;;
33453;SDS011;39400;49.744;7.012;2023-06-22T04:15:47;11.30;;;9.10;;
33453;SDS011;39400;49.744;7.012;2023-06-22T04:18:13;10.82;;;9.45;;
33453;SDS011;39400;49.744;7.012;2023-06-22T04:20:38;10.32;;;8.23;;
33453;SDS011;39400;49.744;7.012;2023-06-22T04:23:04;10.48;;;8.82;;
33453;SDS011;39400;49.744;7.012;2023-06-22T04:25:29;14.82;;;10.50;;
33453;SDS011;39400;49.744;7.012;2023-06-22T04:27:54;17.27;;;12.25;;
33453;SDS011;39400;49.744;7.012;2023-06-22T04:30:20;13.07;;;11.10;;
33453;SDS011;39400;49.744;7.012;2023-06-22T04:32:45;14.40;;;11.45;;
33453;SDS011;39400;49.744;7.012;2023-06-22T04:35:11;11.98;;;10.20;;
33453;SDS011;39400;49.744;7.012;2023-06-22T04:37:37;13.70;;;11.05;;
33453;SDS011;39400;49.744;7.012;2023-06-22T04:40:02;12.30;;;10.60;;
33453;SDS011;39400;49.744;7.012;2023-06-22T04:42:28;10.90;;;9.13;;
33453;SDS011;39400;49.744;7.012;2023-06-22T04:44:53;11.70;;;9.25;;
33453;SDS011;39400;49.744;7.012;2023-06-22T04:47:19;11.90;;;10.15;;
33453;SDS011;39400;49.744;7.012;2023-06-22T04:49:44;16.40;;;11.52;;
33453;SDS011;39400;49.744;7.012;2023-06-22T04:52:10;13.48;;;10.23;;
33453;SDS011;39400;49.744;7.012;2023-06-22T04:54:37;14.13;;;10.43;;
33453;SDS011;39400;49.744;7.012;2023-06-22T04:57:05;14.15;;;10.05;;
33453;SDS011;39400;49.744;7.012;2023-06-22T04:59:31;13.10;;;9.13;;
33453;SDS011;39400;49.744;7.012;2023-06-22T05:01:57;17.77;;;11.05;;
33453;SDS011;39400;49.744;7.012;2023-06-22T05:04:24;11.52;;;9.77;;
33453;SDS011;39400;49.744;7.012;2023-06-22T05:06:51;15.60;;;11.85;;
33453;SDS011;39400;49.744;7.012;2023-06-22T05:09:17;10.25;;;9.15;;
33453;SDS011;39400;49.744;7.012;2023-06-22T05:11:43;10.85;;;8.23;;
33453;SDS011;39400;49.744;7.012;2023-06-22T05:14:09;10.93;;;9.00;;
33453;SDS011;39400;49.744;7.012;2023-06-22T05:16:34;12.70;;;10.38;;
33453;SDS011;39400;49.744;7.012;2023-06-22T05:19:00;12.52;;;10.50;;
33453;SDS011;39400;49.744;7.012;2023-06-22T05:21:26;9.65;;;8.27;;
33453;SDS011;39400;49.744;7.012;2023-06-22T05:23:52;10.43;;;8.85;;
33453;SDS011;39400;49.744;7.012;2023-06-22T05:26:19;10.80;;;9.68;;
33453;SDS011;39400;49.744;7.012;2023-06-22T05:28:45;12.25;;;9.30;;
33453;SDS011;39400;49.744;7.012;2023-06-22T05:31:13;13.52;;;10.02;;
33453;SDS011;39400;49.744;7.012;2023-06-22T05:33:39;11.10;;;8.40;;
33453;SDS011;39400;49.744;7.012;2023-06-22T05:36:06;13.55;;;7.80;;
33453;SDS011;39400;49.744;7.012;2023-06-22T05:38:31;9.85;;;8.43;;
33453;SDS011;39400;49.744;7.012;2023-06-22T05:40:56;17.70;;;9.65;;
33453;SDS011;39400;49.744;7.012;2023-06-22T05:43:22;12.63;;;9.63;;
33453;SDS011;39400;49.744;7.012;2023-06-22T05:45:47;12.00;;;9.18;;
33453;SDS011;39400;49.744;7.012;2023-06-22T05:48:12;12.52;;;8.73;;
33453;SDS011;39400;49.744;7.012;2023-06-22T05:50:38;11.95;;;8.77;;
33453;SDS011;39400;49.744;7.012;2023-06-22T05:53:03;13.52;;;9.52;;
33453;SDS011;39400;49.744;7.012;2023-06-22T05:55:28;11.25;;;10.00;;
33453;SDS011;39400;49.744;7.012;2023-06-22T05:57:54;11.38;;;8.93;;
33453;SDS011;39400;49.744;7.012;2023-06-22T06:00:19;13.98;;;9.63;;
33453;SDS011;39400;49.744;7.012;2023-06-22T06:02:45;12.70;;;10.25;;
33453;SDS011;39400;49.744;7.012;2023-06-22T06:05:13;14.13;;;10.30;;
33453;SDS011;39400;49.744;7.012;2023-06-22T06:07:39;13.23;;;9.20;;
33453;SDS011;39400;49.744;7.012;2023-06-22T06:10:05;11.90;;;9.95;;
33453;SDS011;39400;49.744;7.012;2023-06-22T06:12:30;13.90;;;10.25;;
33453;SDS011;39400;49.744;7.012;2023-06-22T06:14:55;11.70;;;9.82;;
33453;SDS011;39400;49.744;7.012;2023-06-22T06:17:21;12.35;;;9.82;;
33453;SDS011;39400;49.744;7.012;2023-06-22T06:19:46;13.77;;;10.10;;
33453;SDS011;39400;49.744;7.012;2023-06-22T06:22:11;12.50;;;9.68;;
33453;SDS011;39400;49.744;7.012;2023-06-22T06:24:36;13.23;;;9.75;;
33453;SDS011;39400;49.744;7.012;2023-06-22T06:27:02;14.30;;;10.27;;
33453;SDS011;39400;49.744;7.012;2023-06-22T06:29:27;12.40;;;10.68;;
33453;SDS011;39400;49.744;7.012;2023-06-22T06:31:52;13.68;;;11.85;;
33453;SDS011;39400;49.744;7.012;2023-06-22T06:34:18;12.30;;;10.18;;
33453;SDS011;39400;49.744;7.012;2023-06-22T06:36:43;21.08;;;12.68;;
33453;SDS011;39400;49.744;7.012;2023-06-22T06:39:15;11.85;;;9.88;;
33453;SDS011;39400;49.744;7.012;2023-06-22T06:41:40;13.20;;;8.98;;
33453;SDS011;39400;49.744;7.012;2023-06-22T06:44:14;10.48;;;8.70;;
33453;SDS011;39400;49.744;7.012;2023-06-22T06:46:39;13.63;;;9.30;;
33453;SDS011;39400;49.744;7.012;2023-06-22T06:49:05;13.15;;;9.35;;
33453;SDS011;39400;49.744;7.012;2023-06-22T06:51:30;11.20;;;7.82;;
33453;SDS011;39400;49.744;7.012;2023-06-22T06:53:55;11.52;;;8.93;;
33453;SDS011;39400;49.744;7.012;2023-06-22T06:56:21;10.95;;;8.38;;
33453;SDS011;39400;49.744;7.012;2023-06-22T06:58:46;9.07;;;7.95;;
33453;SDS011;39400;49.744;7.012;2023-06-22T07:01:14;10.77;;;9.32;;
33453;SDS011;39400;49.744;7.012;2023-06-22T07:03:40;11.55;;;9.18;;
33453;SDS011;39400;49.744;7.012;2023-06-22T07:06:05;11.57;;;9.13;;
33453;SDS011;39400;49.744;7.012;2023-06-22T07:08:30;10.70;;;8.10;;
33453;SDS011;39400;49.744;7.012;2023-06-22T07:10:56;10.57;;;9.40;;
33453;SDS011;39400;49.744;7.012;2023-06-22T07:13:21;8.77;;;7.78;;
33453;SDS011;39400;49.744;7.012;2023-06-22T07:15:47;13.13;;;8.38;;
33453;SDS011;39400;49.744;7.012;2023-06-22T07:18:12;8.80;;;7.82;;
33453;SDS011;39400;49.744;7.012;2023-06-22T07:20:37;9.35;;;7.80;;
33453;SDS011;39400;49.744;7.012;2023-06-22T07:23:02;9.68;;;8.63;;
33453;SDS011;39400;49.744;7.012;2023-06-22T07:25:28;8.57;;;7.47;;
33453;SDS011;39400;49.744;7.012;2023-06-22T07:27:57;10.97;;;7.43;;
33453;SDS011;39400;49.744;7.012;2023-06-22T07:30:29;7.95;;;6.57;;
33453;SDS011;39400;49.744;7.012;2023-06-22T07:32:56;12.88;;;7.82;;
33453;SDS011;39400;49.744;7.012;2023-06-22T07:35:22;9.55;;;7.05;;
33453;SDS011;39400;49.744;7.012;2023-06-22T07:37:48;12.95;;;9.77;;
33453;SDS011;39400;49.744;7.012;2023-06-22T07:40:13;14.60;;;8.65;;
33453;SDS011;39400;49.744;7.012;2023-06-22T07:42:38;10.70;;;8.55;;
33453;SDS011;39400;49.744;7.012;2023-06-22T07:45:04;8.93;;;7.28;;
33453;SDS011;39400;49.744;7.012;2023-06-22T07:47:30;7.65;;;6.85;;
33453;SDS011;39400;49.744;7.012;2023-06-22T07:49:55;10.43;;;8.13;;
33453;SDS011;39400;49.744;7.012;2023-06-22T07:52:23;10.80;;;7.85;;
33453;SDS011;39400;49.744;7.012;2023-06-22T07:54:49;9.80;;;7.07;;
33453;SDS011;39400;49.744;7.012;2023-06-22T07:57:14;8.15;;;7.00;;
33453;SDS011;39400;49.744;7.012;2023-06-22T07:59:40;9.30;;;7.30;;
33453;SDS011;39400;49.744;7.012;2023-06-22T08:02:05;8.90;;;5.95;;
33453;SDS011;39400;49.744;7.012;2023-06-22T08:04:30;11.05;;;7.93;;
33453;SDS011;39400;49.744;7.012;2023-06-22T08:06:56;7.70;;;5.95;;
33453;SDS011;39400;49.744;7.012;2023-06-22T08:09:21;9.68;;;6.00;;
33453;SDS011;39400;49.744;7.012;2023-06-22T08:11:47;10.18;;;6.75;;
33453;SDS011;39400;49.744;7.012;2023-06-22T08:14:12;9.45;;;6.40;;
33453;SDS011;39400;49.744;7.012;2023-06-22T08:16:37;12.68;;;6.55;;
33453;SDS011;39400;49.744;7.012;2023-06-22T08:19:03;9.68;;;6.82;;
33453;SDS011;39400;49.744;7.012;2023-06-22T08:21:28;11.15;;;6.78;;
33453;SDS011;39400;49.744;7.012;2023-06-22T08:23:53;7.63;;;6.13;;
33453;SDS011;39400;49.744;7.012;2023-06-22T08:26:19;9.55;;;6.00;;
33453;SDS011;39400;49.744;7.012;2023-06-22T08:28:44;12.55;;;6.47;;
33453;SDS011;39400;49.744;7.012;2023-06-22T08:31:09;9.45;;;6.28;;
33453;SDS011;39400;49.744;7.012;2023-06-22T08:33:35;11.70;;;7.80;;
33453;SDS011;39400;49.744;7.012;2023-06-22T08:36:00;7.60;;;6.18;;
33453;SDS011;39400;49.744;7.012;2023-06-22T08:38:26;8.38;;;6.70;;
33453;SDS011;39400;49.744;7.012;2023-06-22T08:40:51;10.13;;;5.93;;
33453;SDS011;39400;49.744;7.012;2023-06-22T08:43:16;8.60;;;6.25;;
33453;SDS011;39400;49.744;7.012;2023-06-22T08:45:42;5.95;;;5.35;;
33453;SDS011;39400;49.744;7.012;2023-06-22T08:48:07;7.75;;;6.05;;
33453;SDS011;39400;49.744;7.012;2023-06-22T08:50:32;10.27;;;6.00;;
33453;SDS011;39400;49.744;7.012;2023-06-22T08:52:58;9.02;;;6.38;;
33453;SDS011;39400;49.744;7.012;2023-06-22T08:55:23;11.63;;;6.97;;
33453;SDS011;39400;49.744;7.012;2023-06-22T08:57:48;8.55;;;6.38;;
33453;SDS011;39400;49.744;7.012;2023-06-22T09:00:14;9.03;;;6.60;;
33453;SDS011;39400;49.744;7.012;2023-06-22T09:02:40;9.32;;;6.22;;
33453;SDS011;39400;49.744;7.012;2023-06-22T09:05:05;9.48;;;7.00;;
33453;SDS011;39400;49.744;7.012;2023-06-22T09:07:31;7.72;;;6.93;;
33453;SDS011;39400;49.744;7.012;2023-06-22T09:09:56;9.52;;;7.15;;
33453;SDS011;39400;49.744;7.012;2023-06-22T09:12:21;9.27;;;8.27;;
33453;SDS011;39400;49.744;7.012;2023-06-22T09:14:47;10.18;;;7.82;;
33453;SDS011;39400;49.744;7.012;2023-06-22T09:17:12;7.93;;;6.93;;
33453;SDS011;39400;49.744;7.012;2023-06-22T09:19:38;8.30;;;6.80;;
33453;SDS011;39400;49.744;7.012;2023-06-22T09:22:04;11.80;;;7.65;;
33453;SDS011;39400;49.744;7.012;2023-06-22T09:24:29;9.68;;;6.97;;
33453;SDS011;39400;49.744;7.012;2023-06-22T09:26:55;31.52;;;8.25;;
33453;SDS011;39400;49.744;7.012;2023-06-22T09:29:20;13.25;;;8.00;;
33453;SDS011;39400;49.744;7.012;2023-06-22T09:31:55;11.15;;;8.02;;
33453;SDS011;39400;49.744;7.012;2023-06-22T09:34:38;13.50;;;8.60;;
33453;SDS011;39400;49.744;7.012;2023-06-22T09:37:04;17.60;;;8.93;;
33453;SDS011;39400;49.744;7.012;2023-06-22T09:39:29;9.95;;;8.63;;
33453;SDS011;39400;49.744;7.012;2023-06-22T09:41:55;12.52;;;9.35;;
33453;SDS011;39400;49.744;7.012;2023-06-22T09:44:20;14.23;;;9.15;;
33453;SDS011;39400;49.744;7.012;2023-06-22T09:46:45;10.93;;;7.57;;
33453;SDS011;39400;49.744;7.012;2023-06-22T09:49:11;12.68;;;8.15;;
33453;SDS011;39400;49.744;7.012;2023-06-22T09:51:36;13.63;;;7.40;;
33453;SDS011;39400;49.744;7.012;2023-06-22T09:54:01;12.73;;;6.95;;
33453;SDS011;39400;49.744;7.012;2023-06-22T09:56:27;12.52;;;6.88;;
33453;SDS011;39400;49.744;7.012;2023-06-22T09:58:52;13.63;;;7.13;;
33453;SDS011;39400;49.744;7.012;2023-06-22T10:01:17;10.18;;;7.05;;
33453;SDS011;39400;49.744;7.012;2023-06-22T10:03:43;12.95;;;7.53;;
33453;SDS011;39400;49.744;7.012;2023-06-22T10:06:08;9.68;;;7.05;;
33453;SDS011;39400;49.744;7.012;2023-06-22T10:08:33;11.40;;;8.30;;
33453;SDS011;39400;49.744;7.012;2023-06-22T10:10:59;10.77;;;8.20;;
33453;SDS011;39400;49.744;7.012;2023-06-22T10:13:24;11.80;;;7.90;;
33453;SDS011;39400;49.744;7.012;2023-06-22T10:15:50;15.38;;;7.28;;
33453;SDS011;39400;49.744;7.012;2023-06-22T10:18:15;8.68;;;7.15;;
33453;SDS011;39400;49.744;7.012;2023-06-22T10:20:41;11.40;;;8.98;;
33453;SDS011;39400;49.744;7.012;2023-06-22T10:23:06;8.65;;;6.65;;
33453;SDS011;39400;49.744;7.012;2023-06-22T10:25:31;12.07;;;8.00;;
33453;SDS011;39400;49.744;7.012;2023-06-22T10:27:57;14.48;;;8.02;;
33453;SDS011;39400;49.744;7.012;2023-06-22T10:30:22;9.07;;;7.60;;
33453;SDS011;39400;49.744;7.012;2023-06-22T10:32:47;10.30;;;7.50;;
33453;SDS011;39400;49.744;7.012;2023-06-22T10:35:13;8.50;;;7.07;;
33453;SDS011;39400;49.744;7.012;2023-06-22T10:37:38;13.15;;;7.82;;
33453;SDS011;39400;49.744;7.012;2023-06-22T10:40:03;10.82;;;7.72;;
33453;SDS011;39400;49.744;7.012;2023-06-22T10:42:29;10.75;;;7.97;;
33453;SDS011;39400;49.744;7.012;2023-06-22T10:44:54;11.93;;;8.10;;
33453;SDS011;39400;49.744;7.012;2023-06-22T10:47:20;9.45;;;7.00;;
33453;SDS011;39400;49.744;7.012;2023-06-22T10:49:45;9.70;;;6.38;;
33453;SDS011;39400;49.744;7.012;2023-06-22T10:52:10;11.43;;;7.68;;
33453;SDS011;39400;49.744;7.012;2023-06-22T10:54:38;12.30;;;7.72;;
33453;SDS011;39400;49.744;7.012;2023-06-22T10:57:03;10.73;;;8.38;;
33453;SDS011;39400;49.744;7.012;2023-06-22T10:59:29;12.20;;;6.47;;
33453;SDS011;39400;49.744;7.012;2023-06-22T11:01:57;11.03;;;7.13;;
33453;SDS011;39400;49.744;7.012;2023-06-22T11:06:49;14.90;;;8.88;;
33453;SDS011;39400;49.744;7.012;2023-06-22T11:09:14;8.85;;;7.25;;
33453;SDS011;39400;49.744;7.012;2023-06-22T11:11:41;12.68;;;7.55;;
33453;SDS011;39400;49.744;7.012;2023-06-22T11:14:06;12.40;;;8.70;;
33453;SDS011;39400;49.744;7.012;2023-06-22T11:16:31;10.00;;;6.72;;
33453;SDS011;39400;49.744;7.012;2023-06-22T11:18:56;8.23;;;6.97;;
33453;SDS011;39400;49.744;7.012;2023-06-22T11:21:22;12.57;;;7.10;;
33453;SDS011;39400;49.744;7.012;2023-06-22T11:23:47;9.30;;;6.28;;
33453;SDS011;39400;49.744;7.012;2023-06-22T11:26:12;10.82;;;8.23;;
33453;SDS011;39400;49.744;7.012;2023-06-22T11:28:38;12.32;;;6.78;;
33453;SDS011;39400;49.744;7.012;2023-06-22T11:31:03;10.68;;;6.65;;
33453;SDS011;39400;49.744;7.012;2023-06-22T11:33:28;14.37;;;5.87;;
33453;SDS011;39400;49.744;7.012;2023-06-22T11:35:54;11.53;;;6.57;;
33453;SDS011;39400;49.744;7.012;2023-06-22T11:38:19;9.90;;;6.03;;
33453;SDS011;39400;49.744;7.012;2023-06-22T11:40:44;13.93;;;6.10;;
33453;SDS011;39400;49.744;7.012;2023-06-22T11:43:10;13.90;;;7.55;;
33453;SDS011;39400;49.744;7.012;2023-06-22T11:45:35;15.85;;;7.15;;
33453;SDS011;39400;49.744;7.012;2023-06-22T11:48:00;14.73;;;7.18;;
33453;SDS011;39400;49.744;7.012;2023-06-22T11:50:25;14.97;;;6.93;;
33453;SDS011;39400;49.744;7.012;2023-06-22T11:52:51;13.43;;;6.30;;
33453;SDS011;39400;49.744;7.012;2023-06-22T11:55:16;11.80;;;6.83;;
33453;SDS011;39400;49.744;7.012;2023-06-22T11:57:55;11.95;;;6.32;;
33453;SDS011;39400;49.744;7.012;2023-06-22T12:00:22;8.77;;;6.15;;
33453;SDS011;39400;49.744;7.012;2023-06-22T12:02:47;12.68;;;6.57;;
33453;SDS011;39400;49.744;7.012;2023-06-22T12:05:12;12.90;;;6.85;;
33453;SDS011;39400;49.744;7.012;2023-06-22T12:07:38;12.13;;;6.55;;
33453;SDS011;39400;49.744;7.012;2023-06-22T12:10:03;13.23;;;6.10;;
33453;SDS011;39400;49.744;7.012;2023-06-22T12:12:29;17.13;;;6.32;;
33453;SDS011;39400;49.744;7.012;2023-06-22T12:14:54;17.50;;;5.97;;
33453;SDS011;39400;49.744;7.012;2023-06-22T12:17:19;19.10;;;6.60;;
33453;SDS011;39400;49.744;7.012;2023-06-22T12:19:45;20.13;;;6.75;;
33453;SDS011;39400;49.744;7.012;2023-06-22T12:22:10;12.68;;;6.32;;
33453;SDS011;39400;49.744;7.012;2023-06-22T12:24:35;14.33;;;5.73;;
33453;SDS011;39400;49.744;7.012;2023-06-22T12:27:01;14.98;;;5.72;;
33453;SDS011;39400;49.744;7.012;2023-06-22T12:29:26;17.42;;;6.28;;
33453;SDS011;39400;49.744;7.012;2023-06-22T12:35:45;12.00;;;5.95;;
33453;SDS011;39400;49.744;7.012;2023-06-22T12:38:26;16.50;;;7.65;;
33453;SDS011;39400;49.744;7.012;2023-06-22T12:41:09;14.02;;;6.95;;
33453;SDS011;39400;49.744;7.012;2023-06-22T12:43:35;17.27;;;7.60;;
33453;SDS011;39400;49.744;7.012;2023-06-22T12:46:00;17.53;;;6.40;;
33453;SDS011;39400;49.744;7.012;2023-06-22T12:48:26;16.02;;;6.18;;
33453;SDS011;39400;49.744;7.012;2023-06-22T12:50:52;15.23;;;5.70;;
33453;SDS011;39400;49.744;7.012;2023-06-22T12:53:17;15.15;;;6.75;;
33453;SDS011;39400;49.744;7.012;2023-06-22T12:55:42;13.23;;;5.90;;
33453;SDS011;39400;49.744;7.012;2023-06-22T12:58:08;18.15;;;5.80;;
33453;SDS011;39400;49.744;7.012;2023-06-22T13:00:33;25.10;;;8.15;;
33453;SDS011;39400;49.744;7.012;2023-06-22T13:02:58;15.18;;;7.10;;
33453;SDS011;39400;49.744;7.012;2023-06-22T13:05:24;27.73;;;10.40;;
33453;SDS011;39400;49.744;7.012;2023-06-22T13:07:49;30.35;;;7.57;;
33453;SDS011;39400;49.744;7.012;2023-06-22T13:10:14;19.38;;;6.65;;
33453;SDS011;39400;49.744;7.012;2023-06-22T13:12:40;24.13;;;8.98;;
33453;SDS011;39400;49.744;7.012;2023-06-22T13:15:05;19.60;;;7.90;;
33453;SDS011;39400;49.744;7.012;2023-06-22T13:17:31;14.88;;;7.15;;
33453;SDS011;39400;49.744;7.012;2023-06-22T13:19:56;17.75;;;7.78;;
33453;SDS011;39400;49.744;7.012;2023-06-22T13:22:34;16.50;;;6.97;;
33453;SDS011;39400;49.744;7.012;2023-06-22T13:25:00;19.55;;;7.93;;
33453;SDS011;39400;49.744;7.012;2023-06-22T13:27:26;21.33;;;7.00;;
33453;SDS011;39400;49.744;7.012;2023-06-22T13:29:51;18.10;;;7.45;;
33453;SDS011;39400;49.744;7.012;2023-06-22T13:32:17;22.23;;;7.35;;
33453;SDS011;39400;49.744;7.012;2023-06-22T13:34:43;25.35;;;9.75;;
33453;SDS011;39400;49.744;7.012;2023-06-22T13:37:08;24.15;;;8.88;;
33453;SDS011;39400;49.744;7.012;2023-06-22T13:39:33;17.98;;;7.88;;
33453;SDS011;39400;49.744;7.012;2023-06-22T13:41:59;14.30;;;6.82;;
33453;SDS011;39400;49.744;7.012;2023-06-22T13:44:24;19.73;;;7.63;;
33453;SDS011;39400;49.744;7.012;2023-06-22T13:46:49;21.20;;;8.55;;
33453;SDS011;39400;49.744;7.012;2023-06-22T13:49:15;19.90;;;8.35;;
33453;SDS011;39400;49.744;7.012;2023-06-22T13:51:40;28.35;;;9.98;;
33453;SDS011;39400;49.744;7.012;2023-06-22T13:54:05;19.00;;;8.45;;
33453;SDS011;39400;49.744;7.012;2023-06-22T13:56:31;20.30;;;7.40;;
33453;SDS011;39400;49.744;7.012;2023-06-22T13:58:57;15.32;;;5.75;;
33453;SDS011;39400;49.744;7.012;2023-06-22T14:01:22;14.60;;;6.15;;
33453;SDS011;39400;49.744;7.012;2023-06-22T14:03:48;17.13;;;6.20;;
33453;SDS011;39400;49.744;7.012;2023-06-22T14:06:13;11.60;;;5.85;;
33453;SDS011;39400;49.744;7.012;2023-06-22T14:08:38;14.80;;;5.65;;
33453;SDS011;39400;49.744;7.012;2023-06-22T14:11:04;16.25;;;5.65;;
33453;SDS011;39400;49.744;7.012;2023-06-22T14:13:29;14.15;;;5.20;;
33453;SDS011;39400;49.744;7.012;2023-06-22T14:15:54;13.30;;;6.18;;
33453;SDS011;39400;49.744;7.012;2023-06-22T14:18:20;15.13;;;5.20;;
33453;SDS011;39400;49.744;7.012;2023-06-22T14:20:45;12.23;;;4.82;;
33453;SDS011;39400;49.744;7.012;2023-06-22T14:23:10;13.40;;;4.68;;
33453;SDS011;39400;49.744;7.012;2023-06-22T14:25:36;6.97;;;4.18;;
33453;SDS011;39400;49.744;7.012;2023-06-22T14:28:01;12.50;;;4.68;;
33453;SDS011;39400;49.744;7.012;2023-06-22T14:30:26;10.48;;;5.65;;
33453;SDS011;39400;49.744;7.012;2023-06-22T14:32:52;10.68;;;4.57;;
33453;SDS011;39400;49.744;7.012;2023-06-22T14:35:17;9.32;;;3.95;;
33453;SDS011;39400;49.744;7.012;2023-06-22T14:37:42;8.55;;;4.43;;
33453;SDS011;39400;49.744;7.012;2023-06-22T14:40:08;10.30;;;4.00;;
33453;SDS011;39400;49.744;7.012;2023-06-22T14:42:33;8.52;;;4.65;;